First Coast — WCR9075 — position and weather

sailwx.info

Track history (hours):
 
Tides and Currents Weather Stations Pressure Air Temp Water Temp Dewpoint Dewpoint Depression Visibility Wind Speed Wind Dir Waves Ship Positions

First Coast

Owner: DANN MARINE TOWING L C, CHESAPEAKE CITY, MD. More information available from US FCC via Universal Licensing System and Coast Guard Vessel Documentation Center.

Last reported at 2015-May-28 07:34 UTC. Time now 2015-May-28 08:10 UTC.
Position N 39°55' W 075°08'.

; draft 3.5 m.

Type: Tug. MMSI: 367024280.

Date/timePositionNaut miles runAvg speedWind from/ knotsBaromVisibWave heightAir tempDewpointWater temp
2015-May-28 07:34N 39°55' W 075°08'0 0.0
2015-May-28 06:33N 39°55' W 075°08'0 0.0
2015-May-28 05:33N 39°55' W 075°08'0 0.0
2015-May-28 04:34N 39°55' W 075°08'0 0.0
2015-May-28 03:34N 39°55' W 075°08'0 0.0
2015-May-28 02:34N 39°55' W 075°08'0 0.0
2015-May-28 01:33N 39°55' W 075°08'0 0.0
2015-May-28 00:34N 39°55' W 075°08'0 0.0
2015-May-27 23:34N 39°55' W 075°08'0 0.0
2015-May-27 22:34N 39°55' W 075°08'0 0.0
2015-May-27 21:33N 39°55' W 075°08'0 0.0
2015-May-27 20:34N 39°55' W 075°08'0 0.0
2015-May-27 19:33N 39°55' W 075°08'0 0.0
2015-May-27 18:33N 39°55' W 075°08'0 0.0
2015-May-27 17:34N 39°55' W 075°08'0 0.0
2015-May-27 16:34N 39°55' W 075°08'0 0.0
2015-May-27 15:34N 39°55' W 075°08'0 0.0
2015-May-27 14:33N 39°55' W 075°08'1 0.9
2015-May-27 13:34N 39°54' W 075°08'7 7.4
2015-May-27 12:34N 39°51' W 075°16'4 4.2
2015-May-27 11:33N 39°53' W 075°12'4 3.7
2015-May-27 10:34N 39°55' W 075°08'0 0.0
2015-May-27 09:34N 39°55' W 075°08'0 0.0
2015-May-27 08:34N 39°55' W 075°08'0 0.0
2015-May-27 07:34N 39°55' W 075°08'0 0.0
2015-May-27 06:34N 39°55' W 075°08'0 0.0
2015-May-27 05:34N 39°55' W 075°08'0 0.0
2015-May-27 04:33N 39°55' W 075°08'0 0.0
2015-May-27 03:34N 39°55' W 075°08'0 0.0
2015-May-27 02:34N 39°55' W 075°08'0 0.0
2015-May-27 01:34N 39°55' W 075°08'0 0.0
2015-May-27 00:34N 39°55' W 075°08'0 0.0
2015-May-26 23:34N 39°55' W 075°08'0 0.0
2015-May-26 22:33N 39°55' W 075°08'0 0.0
2015-May-26 21:34N 39°55' W 075°08'0 0.0
2015-May-26 20:34N 39°55' W 075°08'0 0.0
2015-May-26 19:33N 39°55' W 075°08'0 0.0
2015-May-26 18:34N 39°55' W 075°08'0 0.0
2015-May-26 17:34N 39°55' W 075°08'0 0.0
2015-May-26 16:34N 39°55' W 075°08'0 0.0
2015-May-26 15:33N 39°55' W 075°08'0 0.0
2015-May-26 14:34N 39°55' W 075°08'0 0.0
2015-May-26 13:34N 39°55' W 075°08'0 0.0
2015-May-26 12:34N 39°55' W 075°08'0 0.0
2015-May-26 11:34N 39°55' W 075°08'0 0.0
2015-May-26 10:33N 39°55' W 075°08'0 0.0
2015-May-26 09:33N 39°55' W 075°08'0 0.0
2015-May-26 08:33N 39°55' W 075°08'0 0.0
2015-May-26 07:34N 39°55' W 075°08'0 0.0
2015-May-26 06:34N 39°55' W 075°08'0 0.0
2015-May-26 05:34N 39°55' W 075°08'0 0.0
2015-May-26 04:34N 39°55' W 075°08'0 0.0
2015-May-26 03:34N 39°55' W 075°08'0 0.0
2015-May-26 02:34N 39°55' W 075°08'0 0.0
2015-May-26 01:34N 39°55' W 075°08'0 0.0
2015-May-26 00:34N 39°55' W 075°08'0 0.0
2015-May-25 23:33N 39°55' W 075°08'0 0.0
2015-May-25 22:33N 39°55' W 075°08'0 0.0
2015-May-25 21:34N 39°55' W 075°08'0 0.0
2015-May-25 20:34N 39°55' W 075°08'0 0.0
2015-May-25 19:34N 39°55' W 075°08'0 0.0
2015-May-25 18:33N 39°55' W 075°08'0 0.0
2015-May-25 17:34N 39°55' W 075°08'0 0.0
2015-May-25 16:34N 39°55' W 075°08'0 0.0
2015-May-25 15:33N 39°55' W 075°08'1 0.7
2015-May-25 14:34N 39°56' W 075°08'0 0.0
2015-May-25 13:34N 39°56' W 075°08'1 0.7
2015-May-25 12:33N 39°55' W 075°08'0 0.0
2015-May-25 11:33N 39°55' W 075°08'0 0.0
2015-May-25 10:34N 39°55' W 075°08'0 0.0
2015-May-25 09:34N 39°55' W 075°08'0 0.0
2015-May-25 08:33N 39°55' W 075°08'0 0.0
2015-May-25 07:34N 39°55' W 075°08'0 0.0
2015-May-25 06:33N 39°55' W 075°08'0 0.0
2015-May-25 05:33N 39°55' W 075°08'0 0.0
2015-May-25 04:33N 39°55' W 075°08'2 2.3
2015-May-25 03:34N 39°53' W 075°09'5 5.4
2015-May-25 02:33N 39°51' W 075°15'5 5.3
2015-May-25 01:32N 39°50' W 075°22'9 6.0
2015-May-25 00:07N 39°44' W 075°30'100 6.3
2015-May-24 08:10N 38°10' W 076°17'4 6.8
2015-May-24 07:33N 38°06' W 076°16'7 6.9
2015-May-24 06:30N 37°59' W 076°14'6 6.5
2015-May-24 05:32N 37°54' W 076°11'  
2015-May-19 11:21N 38°06' W 076°16'47 7.6
2015-May-19 05:13N 38°52' W 076°26'34 8.2
2015-May-19 01:05N 39°22' W 076°07'4 7.2
2015-May-19 00:33N 39°24' W 076°03'7 7.2
2015-May-18 23:33N 39°29' W 075°57'7 6.7
2015-May-18 22:34N 39°32' W 075°49'8 7.6
2015-May-18 21:34N 39°33' W 075°39'6 6.0
2015-May-18 20:34N 39°38' W 075°34'10 9.7
2015-May-18 19:34N 39°46' W 075°28'8 8.2
2015-May-18 18:34N 39°51' W 075°19'7 6.8
2015-May-18 17:34N 39°53' W 075°11'3 3.1
2015-May-18 16:31N 39°55' W 075°08'0 0.0
2015-May-18 15:31N 39°55' W 075°08'0 0.0
2015-May-18 14:31N 39°55' W 075°08'0 0.0
2015-May-18 13:31N 39°55' W 075°08'0 0.0
2015-May-18 12:31N 39°55' W 075°08'0 0.0
2015-May-18 11:31N 39°55' W 075°08'0 0.0
2015-May-18 10:31N 39°55' W 075°08'0 0.0
2015-May-18 09:31N 39°55' W 075°08'0 0.0
2015-May-18 08:31N 39°55' W 075°08'  
Track history (hours):
 
Tides and Currents Weather Stations Pressure Air Temp Water Temp Dewpoint Dewpoint Depression Visibility Wind Speed Wind Dir Waves Ship Positions

First Coast

Owner: DANN MARINE TOWING L C, CHESAPEAKE CITY, MD. More information available from US FCC via Universal Licensing System and Coast Guard Vessel Documentation Center.

Last reported at 2015-May-28 07:34 UTC. Time now 2015-May-28 08:10 UTC.
Position N 39°55' W 075°08'.

; draft 3.5 m.

Type: Tug. MMSI: 367024280.

Date/timePositionNaut miles runAvg speedWind from/ knotsBaromVisibWave heightAir tempDewpointWater temp
2015-May-28 07:34N 39°55' W 075°08'0 0.0
2015-May-28 06:33N 39°55' W 075°08'0 0.0
2015-May-28 05:33N 39°55' W 075°08'0 0.0
2015-May-28 04:34N 39°55' W 075°08'0 0.0
2015-May-28 03:34N 39°55' W 075°08'0 0.0
2015-May-28 02:34N 39°55' W 075°08'0 0.0
2015-May-28 01:33N 39°55' W 075°08'0 0.0
2015-May-28 00:34N 39°55' W 075°08'0 0.0
2015-May-27 23:34N 39°55' W 075°08'0 0.0
2015-May-27 22:34N 39°55' W 075°08'0 0.0
2015-May-27 21:33N 39°55' W 075°08'0 0.0
2015-May-27 20:34N 39°55' W 075°08'0 0.0
2015-May-27 19:33N 39°55' W 075°08'0 0.0
2015-May-27 18:33N 39°55' W 075°08'0 0.0
2015-May-27 17:34N 39°55' W 075°08'0 0.0
2015-May-27 16:34N 39°55' W 075°08'0 0.0
2015-May-27 15:34N 39°55' W 075°08'0 0.0
2015-May-27 14:33N 39°55' W 075°08'1 0.9
2015-May-27 13:34N 39°54' W 075°08'7 7.4
2015-May-27 12:34N 39°51' W 075°16'4 4.2
2015-May-27 11:33N 39°53' W 075°12'4 3.7
2015-May-27 10:34N 39°55' W 075°08'0 0.0
2015-May-27 09:34N 39°55' W 075°08'0 0.0
2015-May-27 08:34N 39°55' W 075°08'0 0.0
2015-May-27 07:34N 39°55' W 075°08'0 0.0
2015-May-27 06:34N 39°55' W 075°08'0 0.0
2015-May-27 05:34N 39°55' W 075°08'0 0.0
2015-May-27 04:33N 39°55' W 075°08'0 0.0
2015-May-27 03:34N 39°55' W 075°08'0 0.0
2015-May-27 02:34N 39°55' W 075°08'0 0.0
2015-May-27 01:34N 39°55' W 075°08'0 0.0
2015-May-27 00:34N 39°55' W 075°08'0 0.0
2015-May-26 23:34N 39°55' W 075°08'0 0.0
2015-May-26 22:33N 39°55' W 075°08'0 0.0
2015-May-26 21:34N 39°55' W 075°08'0 0.0
2015-May-26 20:34N 39°55' W 075°08'0 0.0
2015-May-26 19:33N 39°55' W 075°08'0 0.0
2015-May-26 18:34N 39°55' W 075°08'0 0.0
2015-May-26 17:34N 39°55' W 075°08'0 0.0
2015-May-26 16:34N 39°55' W 075°08'0 0.0
2015-May-26 15:33N 39°55' W 075°08'0 0.0
2015-May-26 14:34N 39°55' W 075°08'0 0.0
2015-May-26 13:34N 39°55' W 075°08'0 0.0
2015-May-26 12:34N 39°55' W 075°08'0 0.0
2015-May-26 11:34N 39°55' W 075°08'0 0.0
2015-May-26 10:33N 39°55' W 075°08'0 0.0
2015-May-26 09:33N 39°55' W 075°08'0 0.0
2015-May-26 08:33N 39°55' W 075°08'0 0.0
2015-May-26 07:34N 39°55' W 075°08'0 0.0
2015-May-26 06:34N 39°55' W 075°08'0 0.0
2015-May-26 05:34N 39°55' W 075°08'0 0.0
2015-May-26 04:34N 39°55' W 075°08'0 0.0
2015-May-26 03:34N 39°55' W 075°08'0 0.0
2015-May-26 02:34N 39°55' W 075°08'0 0.0
2015-May-26 01:34N 39°55' W 075°08'0 0.0
2015-May-26 00:34N 39°55' W 075°08'0 0.0
2015-May-25 23:33N 39°55' W 075°08'0 0.0
2015-May-25 22:33N 39°55' W 075°08'0 0.0
2015-May-25 21:34N 39°55' W 075°08'0 0.0
2015-May-25 20:34N 39°55' W 075°08'0 0.0
2015-May-25 19:34N 39°55' W 075°08'0 0.0
2015-May-25 18:33N 39°55' W 075°08'0 0.0
2015-May-25 17:34N 39°55' W 075°08'0 0.0
2015-May-25 16:34N 39°55' W 075°08'0 0.0
2015-May-25 15:33N 39°55' W 075°08'1 0.7
2015-May-25 14:34N 39°56' W 075°08'0 0.0
2015-May-25 13:34N 39°56' W 075°08'1 0.7
2015-May-25 12:33N 39°55' W 075°08'0 0.0
2015-May-25 11:33N 39°55' W 075°08'0 0.0
2015-May-25 10:34N 39°55' W 075°08'0 0.0
2015-May-25 09:34N 39°55' W 075°08'0 0.0
2015-May-25 08:33N 39°55' W 075°08'0 0.0
2015-May-25 07:34N 39°55' W 075°08'0 0.0
2015-May-25 06:33N 39°55' W 075°08'0 0.0
2015-May-25 05:33N 39°55' W 075°08'0 0.0
2015-May-25 04:33N 39°55' W 075°08'2 2.3
2015-May-25 03:34N 39°53' W 075°09'5 5.4
2015-May-25 02:33N 39°51' W 075°15'5 5.3
2015-May-25 01:32N 39°50' W 075°22'9 6.0
2015-May-25 00:07N 39°44' W 075°30'100 6.3
2015-May-24 08:10N 38°10' W 076°17'4 6.8
2015-May-24 07:33N 38°06' W 076°16'7 6.9
2015-May-24 06:30N 37°59' W 076°14'6 6.5
2015-May-24 05:32N 37°54' W 076°11'  
2015-May-19 11:21N 38°06' W 076°16'47 7.6
2015-May-19 05:13N 38°52' W 076°26'34 8.2
2015-May-19 01:05N 39°22' W 076°07'4 7.2
2015-May-19 00:33N 39°24' W 076°03'7 7.2
2015-May-18 23:33N 39°29' W 075°57'7 6.7
2015-May-18 22:34N 39°32' W 075°49'8 7.6
2015-May-18 21:34N 39°33' W 075°39'6 6.0
2015-May-18 20:34N 39°38' W 075°34'10 9.7
2015-May-18 19:34N 39°46' W 075°28'8 8.2
2015-May-18 18:34N 39°51' W 075°19'7 6.8
2015-May-18 17:34N 39°53' W 075°11'3 3.1
2015-May-18 16:31N 39°55' W 075°08'0 0.0
2015-May-18 15:31N 39°55' W 075°08'0 0.0
2015-May-18 14:31N 39°55' W 075°08'0 0.0
2015-May-18 13:31N 39°55' W 075°08'0 0.0
2015-May-18 12:31N 39°55' W 075°08'0 0.0
2015-May-18 11:31N 39°55' W 075°08'0 0.0
2015-May-18 10:31N 39°55' W 075°08'0 0.0
2015-May-18 09:31N 39°55' W 075°08'0 0.0
2015-May-18 08:31N 39°55' W 075°08'  

Dump ship's entire track history